Terminal Aerodrome Forecast
Issued by NWS

Current Version | Previous Version | Text Only | Print | Product List | Glossary On
Versions: 1 2 3 4 5 6 7 8 9 10 11 12 13 14 15 16 17 18 19 20 21 22 23 24 25 26 27 28 29 30 31 32 33 34 35 36 37 38 39 40 41 42 43 44 45 46 47 48 49 50
000
FTUS41 KCTP 242339
TAFJST
TAF
KJST 242339Z 2500/2524 17012G25KT P6SM BKN005 WS015/18040KT
      TEMPO 2502/2505 27020G40KT 1SM +SHRA BR OVC009
     FM250500 26018G32KT 4SM -SHRA BR BKN009 OVC015
     FM251300 29015G30KT P6SM VCSH OVC015
     FM252200 28012G22KT P6SM BKN020=

USA.gov is the U.S. government's official web portal to all federal, state and local government web resources and services.